Time;durP1;ratioP1;P1;durP2;ratioP2;P2;SDS_P1;SDS_P2;PMS_P1;PMS_P2;Temp;Humidity;BMP_temperature;BMP_pressure;BME280_temperature;BME280_humidity;BME280_pressure;Samples;Min_cycle;Max_cycle;Signal;HPM_P1;HPM_P2
2022/01/24 00:01:57;;;;;;;5.72;3.63;;;6.20;78.20;;;;;;5085832;28;20280;-70
2022/01/24 00:04:26;;;;;;;6.32;3.90;;;6.20;78.20;;;;;;5085101;28;20235;-70
2022/01/24 00:06:54;;;;;;;6.55;4.45;;;6.10;78.20;;;;;;5080695;28;20211;-70
2022/01/24 00:09:23;;;;;;;11.88;6.50;;;6.10;78.30;;;;;;5072900;28;20211;-72
2022/01/24 00:12:02;;;;;;;7.55;4.68;;;6.10;78.30;;;;;;5081672;28;20846;-70
2022/01/24 00:17:30;;;;;;;6.78;3.60;;;6.10;78.30;;;;;;5082376;28;20863;-73
2022/01/24 00:28:14;;;;;;;5.00;3.30;;;6.10;78.20;;;;;;5064530;28;20215;-70
2022/01/24 00:30:44;;;;;;;4.93;3.35;;;6.10;78.20;;;;;;5070278;28;20239;-69
2022/01/24 00:33:12;;;;;;;5.53;3.88;;;6.10;78.20;;;;;;5081074;28;20207;-70
2022/01/24 00:35:40;;;;;;;6.13;3.92;;;6.10;78.20;;;;;;5082774;28;20200;-70
2022/01/24 00:38:08;;;;;;;5.50;3.30;;;6.10;78.20;;;;;;5081257;28;20688;-70
2022/01/24 00:40:39;;;;;;;6.63;4.22;;;6.10;78.20;;;;;;5086135;28;20310;-69
2022/01/24 00:43:18;;;;;;;9.07;4.70;;;6.10;78.20;;;;;;5084650;28;20234;-70
2022/01/24 00:45:55;;;;;;;5.03;3.35;;;6.10;78.00;;;;;;5082861;28;20230;-71
2022/01/24 00:48:36;;;;;;;7.20;4.30;;;6.10;78.00;;;;;;5084096;28;20199;-69
2022/01/24 00:54:03;;;;;;;6.28;4.05;;;6.10;78.10;;;;;;5083404;28;20259;-70
2022/01/24 00:56:31;;;;;;;5.72;3.15;;;6.10;78.20;;;;;;5090418;28;20199;-72
2022/01/24 00:58:59;;;;;;;15.52;6.50;;;6.10;78.10;;;;;;5090380;28;20273;-71
2022/01/24 01:01:29;;;;;;;4.43;2.28;;;6.10;78.00;;;;;;5083912;28;20223;-69
2022/01/24 01:03:57;;;;;;;6.78;3.63;;;6.10;77.90;;;;;;5052785;28;20235;-72
2022/01/24 01:06:25;;;;;;;7.50;3.30;;;6.10;77.90;;;;;;5086132;28;20200;-70
2022/01/24 01:20:00;;;;;;;4.70;2.10;;;6.70;78.10;;;;;;5087346;28;20224;-72
2022/01/24 01:22:28;;;;;;;3.63;2.10;;;6.70;77.30;;;;;;5090403;28;20302;-70
2022/01/24 01:24:56;;;;;;;4.45;2.30;;;6.60;77.30;;;;;;5085319;28;20236;-70
2022/01/24 01:27:29;;;;;;;4.05;2.20;;;6.60;77.20;;;;;;5089365;28;20227;-71
2022/01/24 01:30:01;;;;;;;6.50;3.22;;;6.60;77.40;;;;;;5088558;28;20231;-71
2022/01/24 01:32:47;;;;;;;3.65;2.30;;;6.50;77.30;;;;;;5085370;28;20328;-69
2022/01/24 01:35:32;;;;;;;4.20;2.50;;;6.50;77.10;;;;;;5089237;28;20244;-72
2022/01/24 01:38:29;;;;;;;3.63;2.15;;;6.50;77.10;;;;;;5084995;28;20226;-70
2022/01/24 01:52:26;;;;;;;4.75;1.92;;;6.60;77.10;;;;;;5081835;28;20206;-71
2022/01/24 01:55:09;;;;;;;3.70;2.30;;;6.60;77.00;;;;;;5077258;28;20284;-71
2022/01/24 01:57:38;;;;;;;4.10;2.28;;;6.60;77.10;;;;;;5090120;28;20568;-70
2022/01/24 02:00:09;;;;;;;4.13;3.10;;;6.70;77.10;;;;;;5074820;28;20255;-71
2022/01/24 02:02:37;;;;;;;4.32;3.20;;;6.70;76.40;;;;;;5087529;28;20217;-70
2022/01/24 02:05:08;;;;;;;3.97;2.88;;;6.70;76.60;;;;;;5087818;28;20240;-70
2022/01/24 02:07:46;;;;;;;5.82;3.70;;;6.70;76.50;;;;;;5089894;28;20187;-71
2022/01/24 02:10:15;;;;;;;4.85;3.55;;;6.60;76.50;;;;;;5082603;28;20213;-72
2022/01/24 02:12:42;;;;;;;6.10;3.65;;;6.60;76.60;;;;;;5072367;28;20200;-71
2022/01/24 02:15:14;;;;;;;5.00;2.80;;;6.60;76.60;;;;;;5089029;28;20276;-72
2022/01/24 02:17:45;;;;;;;4.72;3.20;;;6.70;76.70;;;;;;5081685;28;20320;-72
2022/01/24 02:20:37;;;;;;;6.43;3.53;;;6.70;76.70;;;;;;5087238;28;20249;-69
2022/01/24 02:23:31;;;;;;;6.05;3.70;;;6.70;76.60;;;;;;5086813;28;20756;-70
2022/01/24 02:26:02;;;;;;;4.32;3.00;;;6.70;76.40;;;;;;5088172;28;20193;-71
2022/01/24 02:28:41;;;;;;;5.18;3.72;;;6.70;76.50;;;;;;5085702;28;20202;-72
2022/01/24 02:31:23;;;;;;;6.13;4.40;;;6.70;76.50;;;;;;5089017;28;20289;-70
2022/01/24 02:33:52;;;;;;;5.30;4.15;;;6.70;76.20;;;;;;5096404;28;20776;-70
2022/01/24 02:36:21;;;;;;;4.45;3.03;;;6.70;76.40;;;;;;5091598;28;20208;-72
2022/01/24 02:39:04;;;;;;;5.78;3.70;;;6.70;76.40;;;;;;5087841;28;20815;-71
2022/01/24 02:49:49;;;;;;;5.25;3.85;;;6.60;76.10;;;;;;5084804;28;20212;-70
2022/01/24 02:52:17;;;;;;;5.40;3.75;;;6.60;76.10;;;;;;5086148;28;20662;-71
2022/01/24 02:54:48;;;;;;;6.38;4.32;;;6.60;76.30;;;;;;5082359;28;20256;-71
2022/01/24 02:57:17;;;;;;;5.80;3.92;;;6.60;76.20;;;;;;5084309;28;20204;-71
2022/01/24 02:59:44;;;;;;;6.90;4.30;;;6.60;76.30;;;;;;5087122;28;20217;-70
2022/01/24 03:02:12;;;;;;;5.47;3.75;;;6.60;76.10;;;;;;5086447;28;20236;-70
2022/01/24 03:04:40;;;;;;;5.40;3.92;;;6.60;76.00;;;;;;5084343;28;20229;-71
2022/01/24 03:07:08;;;;;;;8.18;4.40;;;6.60;76.10;;;;;;5071609;28;20217;-70
2022/01/24 03:09:36;;;;;;;6.43;4.50;;;6.60;76.20;;;;;;5088559;28;20227;-70
2022/01/24 03:12:11;;;;;;;6.03;4.35;;;6.60;76.30;;;;;;5059017;28;20204;-70
2022/01/24 03:14:39;;;;;;;5.30;3.80;;;6.70;76.30;;;;;;5086371;28;20216;-71
2022/01/24 03:17:07;;;;;;;7.00;3.72;;;6.70;76.30;;;;;;5080387;28;20297;-71
2022/01/24 03:19:35;;;;;;;5.18;3.72;;;6.70;76.30;;;;;;5083571;28;20201;-70
2022/01/24 03:22:04;;;;;;;5.25;3.60;;;6.80;76.20;;;;;;5090228;28;20199;-70
2022/01/24 03:24:32;;;;;;;4.85;3.65;;;6.80;76.10;;;;;;5089069;28;20237;-69
2022/01/24 03:27:00;;;;;;;5.40;3.78;;;6.80;76.20;;;;;;5075670;28;20266;-71
2022/01/24 03:29:29;;;;;;;6.88;4.20;;;6.80;75.90;;;;;;5084726;28;20263;-71
2022/01/24 03:31:57;;;;;;;6.50;3.80;;;6.70;75.80;;;;;;5086487;28;20227;-70
2022/01/24 03:34:25;;;;;;;6.00;4.10;;;6.60;75.60;;;;;;5085362;28;20786;-70
2022/01/24 03:36:53;;;;;;;5.95;3.53;;;6.60;75.70;;;;;;5075692;28;20210;-71
2022/01/24 03:39:22;;;;;;;6.35;4.47;;;6.50;75.70;;;;;;5085902;28;20203;-70
2022/01/24 03:41:50;;;;;;;5.93;4.22;;;6.50;75.70;;;;;;5067290;28;20211;-70
2022/01/24 03:44:19;;;;;;;5.68;4.03;;;6.50;75.90;;;;;;5083033;28;20228;-70
2022/01/24 03:47:00;;;;;;;7.00;4.70;;;6.40;76.00;;;;;;5085666;28;20293;-70
2022/01/24 03:49:48;;;;;;;9.40;5.20;;;6.50;76.00;;;;;;5082635;28;20208;-70
2022/01/24 03:52:18;;;;;;;6.05;5.10;;;6.50;75.90;;;;;;5082867;28;20206;-70
2022/01/24 03:54:47;;;;;;;7.97;4.63;;;6.40;75.80;;;;;;5071647;28;20221;-70
2022/01/24 03:57:17;;;;;;;6.50;4.95;;;6.40;75.90;;;;;;5085468;28;20777;-70
2022/01/24 03:59:45;;;;;;;6.00;4.93;;;6.40;75.80;;;;;;5087305;28;20701;-72
2022/01/24 04:02:15;;;;;;;6.40;4.70;;;6.40;75.80;;;;;;5087214;28;20728;-71
2022/01/24 04:04:43;;;;;;;6.90;4.60;;;6.40;75.90;;;;;;5085192;28;20755;-70
2022/01/24 04:07:11;;;;;;;8.88;5.80;;;6.40;75.90;;;;;;5065363;28;20268;-72
2022/01/24 04:09:41;;;;;;;7.70;4.70;;;6.30;75.90;;;;;;5086256;28;20200;-71
2022/01/24 04:12:10;;;;;;;6.90;4.85;;;6.30;75.90;;;;;;5084795;28;20200;-70
2022/01/24 04:14:42;;;;;;;6.55;4.88;;;6.20;75.90;;;;;;5066211;28;20225;-70
2022/01/24 04:17:23;;;;;;;10.48;3.95;;;6.20;76.00;;;;;;5081978;28;20230;-71
2022/01/24 04:22:48;;;;;;;7.18;4.70;;;6.20;76.10;;;;;;5084557;28;20925;-71
2022/01/24 04:25:22;;;;;;;7.50;5.47;;;6.20;76.20;;;;;;5086522;28;20212;-70
2022/01/24 04:27:51;;;;;;;6.72;4.78;;;6.20;76.40;;;;;;5084542;28;20206;-71
2022/01/24 04:30:19;;;;;;;7.35;5.18;;;6.20;76.30;;;;;;5088449;28;20203;-70
2022/01/24 04:32:48;;;;;;;7.70;4.80;;;6.30;76.30;;;;;;5090615;28;20230;-71
2022/01/24 04:35:17;;;;;;;7.15;5.10;;;6.30;76.30;;;;;;5066770;28;20219;-72
2022/01/24 04:37:45;;;;;;;12.38;4.72;;;6.30;76.30;;;;;;5084832;28;20740;-70
2022/01/24 04:40:13;;;;;;;8.05;5.03;;;6.30;76.40;;;;;;5080111;28;20270;-71
2022/01/24 04:42:48;;;;;;;8.27;5.43;;;6.40;76.10;;;;;;5089498;28;20204;-70
2022/01/24 04:45:52;;;;;;;9.25;5.80;;;6.30;76.10;;;;;;5089054;28;20223;-71
2022/01/24 04:51:15;;;;;;;6.55;5.43;;;6.30;76.30;;;;;;5088956;28;20195;-71
2022/01/24 04:54:16;;;;;;;8.63;6.00;;;6.40;76.40;;;;;;5075651;28;20228;-71
2022/01/24 04:56:43;;;;;;;8.90;5.03;;;6.40;76.30;;;;;;5086446;28;20227;-71
2022/01/24 04:59:12;;;;;;;10.60;6.85;;;6.40;76.10;;;;;;5093867;28;20880;-71
2022/01/24 05:01:40;;;;;;;6.47;4.95;;;6.40;76.00;;;;;;5092958;28;20642;-72
2022/01/24 05:04:08;;;;;;;6.28;5.68;;;6.40;75.90;;;;;;5080320;28;20343;-71
2022/01/24 05:06:37;;;;;;;8.30;5.40;;;6.40;75.90;;;;;;5087887;28;20276;-71
2022/01/24 05:09:06;;;;;;;7.88;5.90;;;6.40;76.10;;;;;;5083093;28;20214;-71
2022/01/24 05:11:41;;;;;;;11.85;8.13;;;6.40;75.90;;;;;;5081115;28;20241;-70
2022/01/24 05:25:17;;;;;;;32.60;16.88;;;6.30;76.10;;;;;;5090490;28;20217;-71
2022/01/24 05:27:45;;;;;;;21.25;12.98;;;6.30;76.10;;;;;;5092813;28;20214;-71
2022/01/24 05:30:14;;;;;;;32.58;18.77;;;6.30;76.20;;;;;;5091186;28;20227;-70
2022/01/24 05:32:42;;;;;;;19.08;11.50;;;6.30;76.10;;;;;;5093908;28;20201;-74
2022/01/24 05:35:10;;;;;;;16.83;10.05;;;6.30;76.10;;;;;;5090718;28;20729;-70
2022/01/24 05:37:39;;;;;;;11.65;5.20;;;6.30;76.00;;;;;;5093924;28;20603;-70
2022/01/24 05:40:08;;;;;;;10.23;8.20;;;6.20;75.80;;;;;;5089373;28;20196;-70
2022/01/24 05:42:36;;;;;;;9.88;7.80;;;6.20;75.90;;;;;;5083397;28;20193;-70
2022/01/24 05:45:06;;;;;;;9.60;7.45;;;6.20;76.00;;;;;;5083348;28;20226;-70
2022/01/24 05:47:34;;;;;;;9.38;7.50;;;6.20;76.00;;;;;;5091992;28;20242;-71
2022/01/24 05:50:05;;;;;;;7.80;5.70;;;6.20;76.10;;;;;;5085385;28;20204;-69
2022/01/24 05:52:33;;;;;;;8.30;5.68;;;6.20;76.10;;;;;;5085918;28;20200;-71
2022/01/24 05:55:03;;;;;;;11.73;7.32;;;6.20;76.10;;;;;;5074377;28;20230;-71
2022/01/24 05:57:32;;;;;;;12.38;9.35;;;6.30;76.10;;;;;;5086732;28;20205;-70
2022/01/24 05:59:59;;;;;;;11.40;8.40;;;6.30;76.00;;;;;;5091205;28;20252;-71
2022/01/24 06:02:27;;;;;;;8.45;6.45;;;6.30;75.90;;;;;;5085490;28;20992;-70
2022/01/24 06:04:55;;;;;;;9.02;6.90;;;6.20;75.90;;;;;;5086474;28;20660;-70
2022/01/24 06:07:23;;;;;;;8.80;7.15;;;6.20;76.00;;;;;;5087261;28;21238;-71
2022/01/24 06:09:51;;;;;;;8.98;7.15;;;6.20;76.00;;;;;;5090827;28;20274;-70
2022/01/24 06:12:20;;;;;;;7.53;6.15;;;6.20;76.00;;;;;;5084124;28;20279;-71
2022/01/24 06:14:48;;;;;;;10.05;5.55;;;6.20;76.00;;;;;;5088047;28;20736;-69
2022/01/24 06:17:17;;;;;;;11.18;5.60;;;6.20;76.00;;;;;;5071195;28;20935;-70
2022/01/24 06:19:45;;;;;;;7.10;4.80;;;6.20;76.00;;;;;;5058671;28;20729;-71
2022/01/24 06:22:13;;;;;;;7.38;4.57;;;6.20;76.00;;;;;;5054438;28;20280;-70
2022/01/24 06:24:41;;;;;;;7.00;5.40;;;6.20;75.90;;;;;;5072398;28;20228;-70
2022/01/24 06:27:30;;;;;;;7.38;5.72;;;6.10;76.00;;;;;;5067587;28;20294;-70
2022/01/24 06:29:58;;;;;;;9.35;5.80;;;6.10;76.10;;;;;;5067355;28;20208;-70
2022/01/24 06:32:26;;;;;;;5.55;4.00;;;6.10;76.00;;;;;;5059558;28;20588;-70
2022/01/24 06:34:54;;;;;;;7.75;5.60;;;6.10;76.00;;;;;;5064373;28;20224;-71
2022/01/24 06:37:22;;;;;;;8.30;5.45;;;6.10;76.00;;;;;;5070385;28;20384;-70
2022/01/24 06:39:50;;;;;;;6.40;4.30;;;6.10;76.00;;;;;;5069553;28;20225;-71
2022/01/24 06:42:22;;;;;;;7.18;5.47;;;6.10;76.00;;;;;;5073656;28;20254;-71
2022/01/24 06:44:53;;;;;;;8.18;6.45;;;6.10;76.10;;;;;;5050701;28;20784;-70
2022/01/24 06:47:22;;;;;;;9.50;7.63;;;6.10;76.10;;;;;;5084887;28;20236;-70
2022/01/24 06:49:50;;;;;;;8.40;6.40;;;6.10;76.10;;;;;;5083728;28;20304;-70
2022/01/24 06:52:20;;;;;;;8.35;5.80;;;6.10;76.00;;;;;;5083760;28;20257;-71
2022/01/24 06:54:48;;;;;;;9.27;6.70;;;6.10;76.00;;;;;;5079299;28;20223;-71
2022/01/24 06:57:17;;;;;;;9.55;7.65;;;6.10;76.10;;;;;;5085817;28;20754;-72
2022/01/24 06:59:47;;;;;;;8.43;6.40;;;6.10;76.20;;;;;;5085751;28;20652;-72
2022/01/24 07:02:17;;;;;;;9.20;7.00;;;6.10;76.20;;;;;;5082936;28;20298;-71
2022/01/24 07:04:45;;;;;;;8.90;6.82;;;6.10;76.20;;;;;;5090067;28;20242;-70
2022/01/24 07:07:15;;;;;;;6.95;5.80;;;6.10;76.20;;;;;;5087216;28;20241;-70
2022/01/24 07:09:44;;;;;;;7.35;5.22;;;6.10;76.20;;;;;;5088904;28;20208;-68
2022/01/24 07:12:12;;;;;;;6.43;5.18;;;6.10;76.20;;;;;;5073364;28;20661;-70
2022/01/24 07:14:41;;;;;;;10.50;6.00;;;6.10;76.10;;;;;;5078049;28;20282;-70
2022/01/24 07:17:16;;;;;;;13.27;8.05;;;6.10;76.20;;;;;;5058254;28;20234;-70
2022/01/24 07:19:46;;;;;;;6.28;4.03;;;6.10;76.20;;;;;;5081427;28;20199;-70
2022/01/24 07:22:14;;;;;;;312.20;129.90;;;6.10;76.20;;;;;;5082213;28;20609;-70
2022/01/24 07:24:42;;;;;;;38.05;19.85;;;6.10;76.20;;;;;;5077377;28;20219;-69
2022/01/24 07:27:10;;;;;;;7.75;5.65;;;6.10;76.20;;;;;;5085574;28;20963;-69
2022/01/24 07:29:38;;;;;;;6.10;4.25;;;6.10;76.20;;;;;;5088624;28;20736;-70
2022/01/24 07:32:06;;;;;;;13.23;7.97;;;6.10;76.10;;;;;;5084196;28;20233;-70
2022/01/24 07:34:34;;;;;;;25.55;16.63;;;6.10;76.30;;;;;;5083832;28;20229;-70
2022/01/24 07:37:04;;;;;;;20.02;13.50;;;6.10;76.40;;;;;;5089191;28;20194;-68
2022/01/24 07:39:32;;;;;;;12.20;6.43;;;6.20;76.40;;;;;;5089565;28;20203;-69
2022/01/24 07:42:15;;;;;;;7.25;5.53;;;6.20;76.30;;;;;;5076595;28;20747;-70
2022/01/24 07:44:43;;;;;;;6.40;5.30;;;6.20;76.20;;;;;;5074944;28;20242;-68
2022/01/24 07:47:11;;;;;;;7.40;5.65;;;6.20;76.30;;;;;;5067411;28;20233;-69
2022/01/24 07:49:39;;;;;;;5.03;3.90;;;6.20;76.30;;;;;;5067326;28;20239;-68
2022/01/24 07:52:08;;;;;;;4.70;3.42;;;6.20;76.30;;;;;;5062696;28;20204;-69
2022/01/24 07:54:36;;;;;;;6.60;4.88;;;6.20;76.30;;;;;;5066082;28;20756;-68
2022/01/24 07:57:05;;;;;;;7.50;5.05;;;6.20;76.20;;;;;;5066398;28;20203;-67
2022/01/24 07:59:33;;;;;;;5.75;4.50;;;6.20;76.30;;;;;;5064072;28;20193;-68
2022/01/24 08:02:01;;;;;;;5.00;3.60;;;6.20;76.30;;;;;;5065391;28;20236;-68
2022/01/24 08:04:29;;;;;;;5.00;3.75;;;6.20;76.30;;;;;;5062214;28;20231;-69
2022/01/24 08:06:57;;;;;;;5.18;3.40;;;6.20;76.30;;;;;;5051150;28;20294;-68
2022/01/24 08:09:26;;;;;;;6.13;4.60;;;6.20;76.30;;;;;;5061104;28;20619;-68
2022/01/24 08:11:54;;;;;;;6.32;4.90;;;6.20;76.20;;;;;;5038818;28;20203;-69
2022/01/24 08:14:22;;;;;;;6.82;4.60;;;6.20;76.30;;;;;;5067314;28;20228;-69
2022/01/24 08:16:50;;;;;;;5.18;3.55;;;6.20;76.40;;;;;;5067070;28;20793;-69
2022/01/24 08:19:18;;;;;;;5.28;4.05;;;6.20;76.30;;;;;;5077900;28;20284;-68
2022/01/24 08:21:46;;;;;;;7.47;4.65;;;6.20;76.30;;;;;;5081847;28;20744;-69
2022/01/24 08:24:14;;;;;;;7.57;5.10;;;6.20;76.30;;;;;;5074487;28;20728;-69
2022/01/24 08:26:44;;;;;;;6.70;5.03;;;6.20;76.50;;;;;;5082229;28;20217;-69
2022/01/24 08:29:13;;;;;;;6.38;5.10;;;6.20;76.40;;;;;;5081261;28;20227;-68
2022/01/24 08:31:41;;;;;;;8.73;6.00;;;6.20;76.40;;;;;;5080964;28;20238;-69
2022/01/24 08:34:09;;;;;;;7.70;5.65;;;6.20;76.40;;;;;;5081383;28;20228;-69
2022/01/24 08:36:37;;;;;;;13.32;8.95;;;6.20;76.30;;;;;;5084590;28;20200;-70
2022/01/24 08:39:08;;;;;;;14.23;9.35;;;6.20;76.30;;;;;;5087963;28;20210;-68
2022/01/24 08:41:57;;;;;;;11.95;7.32;;;6.20;76.30;;;;;;5089073;28;20195;-68
2022/01/24 08:45:42;;;;;;;9.57;6.93;;;6.10;76.30;;;;;;5085123;28;20237;-71
2022/01/24 08:47:21;;;;;;;6.72;4.82;;;6.10;76.40;;;;;;5083919;28;20243;-70
2022/01/24 08:50:10;;;;;;;5.45;4.40;;;6.10;76.50;;;;;;5069545;28;20207;-69
2022/01/24 08:52:38;;;;;;;8.10;4.82;;;6.10;76.60;;;;;;5080083;28;20204;-71
2022/01/24 08:55:13;;;;;;;5.65;4.80;;;6.10;76.60;;;;;;5081967;28;20236;-71
2022/01/24 08:57:41;;;;;;;7.13;4.45;;;6.20;76.60;;;;;;5079327;28;20195;-69
2022/01/24 09:00:12;;;;;;;7.80;4.85;;;6.20;76.70;;;;;;5082473;28;20201;-69
2022/01/24 09:02:40;;;;;;;6.80;5.70;;;6.20;76.70;;;;;;5065659;28;20848;-69
2022/01/24 09:05:09;;;;;;;8.95;4.93;;;6.20;76.70;;;;;;5061762;28;20245;-70
2022/01/24 09:07:37;;;;;;;10.25;5.43;;;6.20;76.70;;;;;;5069216;28;21258;-68
2022/01/24 09:10:07;;;;;;;6.75;5.45;;;6.30;76.70;;;;;;5064545;28;20211;-69
2022/01/24 09:12:35;;;;;;;6.60;3.75;;;6.30;76.60;;;;;;5065702;28;20213;-69
2022/01/24 09:15:03;;;;;;;6.57;4.13;;;6.30;76.60;;;;;;5056541;28;20286;-70
2022/01/24 09:17:32;;;;;;;5.55;4.28;;;6.30;76.60;;;;;;5089461;28;20219;-68
2022/01/24 09:20:00;;;;;;;9.50;7.10;;;6.30;76.70;;;;;;5087253;28;20203;-69
2022/01/24 09:22:43;;;;;;;8.18;6.07;;;6.30;76.80;;;;;;5083321;28;20267;-70
2022/01/24 09:25:12;;;;;;;6.32;4.15;;;6.30;76.80;;;;;;5085197;28;20922;-70
2022/01/24 09:27:40;;;;;;;6.68;4.32;;;6.40;76.80;;;;;;5085603;28;20207;-68
2022/01/24 09:30:10;;;;;;;8.50;4.65;;;6.40;76.90;;;;;;5092918;28;20210;-70
2022/01/24 09:32:40;;;;;;;8.40;4.53;;;6.40;76.90;;;;;;5091852;28;20264;-69
2022/01/24 09:35:09;;;;;;;8.18;4.35;;;6.40;76.60;;;;;;5089865;28;20839;-70
2022/01/24 09:37:38;;;;;;;5.95;4.57;;;6.40;76.60;;;;;;5091636;28;20249;-69
2022/01/24 09:40:08;;;;;;;9.57;5.13;;;6.40;76.60;;;;;;5078156;28;20273;-69
2022/01/24 09:42:36;;;;;;;7.60;5.03;;;6.40;76.50;;;;;;5080504;28;20329;-69
2022/01/24 09:45:04;;;;;;;7.03;5.10;;;6.40;76.70;;;;;;5058851;28;20236;-70
2022/01/24 09:47:36;;;;;;;6.45;5.07;;;6.30;76.70;;;;;;5075019;28;20235;-69
2022/01/24 09:50:06;;;;;;;8.63;3.58;;;6.30;76.80;;;;;;5086094;28;20222;-70
2022/01/24 09:52:35;;;;;;;6.72;5.25;;;6.30;76.80;;;;;;5078265;28;20202;-68
2022/01/24 09:59:16;;;;;;;7.10;4.57;;;6.30;76.90;;;;;;5093182;28;20718;-69
2022/01/24 10:01:44;;;;;;;13.13;8.38;;;6.30;77.00;;;;;;5084122;28;20230;-70
2022/01/24 10:04:16;;;;;;;12.80;9.18;;;6.40;77.00;;;;;;5088449;28;20756;-71
2022/01/24 10:07:00;;;;;;;8.60;5.97;;;6.40;77.00;;;;;;5082156;28;20249;-70
2022/01/24 10:09:30;;;;;;;7.78;5.22;;;6.40;77.00;;;;;;5084354;28;20978;-69
2022/01/24 10:12:05;;;;;;;8.38;5.50;;;6.40;77.00;;;;;;5081609;28;20204;-69
2022/01/24 10:17:22;;;;;;;8.73;5.63;;;6.40;77.00;;;;;;5057010;28;20252;-70
2022/01/24 10:19:50;;;;;;;9.55;5.97;;;6.40;77.10;;;;;;5083194;28;20206;-70
2022/01/24 10:22:24;;;;;;;7.50;5.28;;;6.40;77.10;;;;;;5085945;28;20269;-70
2022/01/24 10:24:54;;;;;;;9.95;5.63;;;6.40;77.20;;;;;;5091417;28;20288;-74
2022/01/24 10:27:24;;;;;;;8.00;6.18;;;6.40;77.00;;;;;;5090409;28;20257;-70
2022/01/24 10:29:57;;;;;;;9.75;7.00;;;6.50;77.10;;;;;;5090683;28;20568;-71
2022/01/24 10:32:37;;;;;;;11.98;8.45;;;6.50;77.20;;;;;;5091532;28;20272;-69
2022/01/24 10:35:26;;;;;;;12.38;8.55;;;6.50;77.10;;;;;;5081203;28;20222;-70
2022/01/24 10:38:23;;;;;;;15.20;8.85;;;6.50;77.00;;;;;;5091682;28;20939;-69
2022/01/24 10:40:54;;;;;;;12.40;9.07;;;6.40;76.90;;;;;;5070843;28;20214;-70
2022/01/24 10:43:25;;;;;;;15.18;10.55;;;6.40;77.00;;;;;;5085012;28;20211;-73
2022/01/24 10:45:55;;;;;;;16.40;10.80;;;6.40;77.10;;;;;;5088986;28;20227;-74
2022/01/24 10:48:25;;;;;;;17.02;13.25;;;6.40;77.20;;;;;;5090353;28;20223;-71
2022/01/24 10:51:08;;;;;;;12.10;9.18;;;6.40;77.10;;;;;;5088715;28;20319;-69
2022/01/24 10:53:41;;;;;;;14.27;9.00;;;6.40;77.10;;;;;;5085836;28;20215;-70
2022/01/24 10:56:29;;;;;;;10.85;8.80;;;6.40;77.10;;;;;;5086188;28;20211;-70
2022/01/24 10:59:03;;;;;;;10.20;8.02;;;6.40;77.20;;;;;;5084242;28;20205;-70
2022/01/24 11:01:34;;;;;;;14.55;9.05;;;6.40;77.20;;;;;;5084443;28;20243;-69
2022/01/24 11:04:06;;;;;;;14.00;9.80;;;6.40;77.20;;;;;;5086768;28;20243;-69
2022/01/24 11:06:36;;;;;;;13.82;10.93;;;6.40;77.30;;;;;;5079880;28;20204;-69
2022/01/24 11:09:21;;;;;;;15.15;9.98;;;6.40;77.30;;;;;;5077972;28;20212;-68
2022/01/24 11:11:53;;;;;;;14.35;10.85;;;6.40;77.40;;;;;;5082093;28;20724;-69
2022/01/24 11:14:21;;;;;;;17.83;9.70;;;6.40;77.30;;;;;;5059047;28;20239;-69
2022/01/24 11:16:50;;;;;;;12.05;8.93;;;6.40;77.30;;;;;;5060495;28;20234;-70
2022/01/24 11:19:26;;;;;;;10.00;7.43;;;6.40;77.40;;;;;;5048155;28;20247;-69
2022/01/24 11:21:56;;;;;;;11.02;7.60;;;6.50;77.50;;;;;;5066324;28;20193;-68
2022/01/24 11:24:36;;;;;;;12.00;8.63;;;6.50;77.60;;;;;;5069406;28;20285;-70
2022/01/24 11:27:25;;;;;;;12.48;9.20;;;6.60;77.50;;;;;;5065688;28;20271;-70
2022/01/24 11:29:56;;;;;;;13.55;9.52;;;6.60;77.50;;;;;;5066706;28;20609;-70
2022/01/24 11:32:28;;;;;;;14.05;9.48;;;6.60;77.40;;;;;;5059159;28;20238;-68
2022/01/24 11:34:59;;;;;;;16.17;11.65;;;6.60;77.30;;;;;;5060707;28;20224;-68
2022/01/24 11:37:33;;;;;;;14.23;10.50;;;6.60;77.40;;;;;;5061872;28;20670;-68
2022/01/24 11:40:05;;;;;;;14.80;10.25;;;6.60;77.40;;;;;;5067325;28;20195;-69
2022/01/24 11:42:36;;;;;;;12.00;9.85;;;6.50;77.40;;;;;;5062257;28;20206;-73
2022/01/24 11:45:55;;;;;;;22.02;13.90;;;6.50;77.40;;;;;;5065285;28;20702;-70
2022/01/24 11:48:24;;;;;;;24.65;15.60;;;6.50;77.50;;;;;;5069648;28;20219;-70
2022/01/24 11:50:58;;;;;;;17.80;12.95;;;6.50;77.60;;;;;;5062426;28;20236;-69
2022/01/24 11:53:28;;;;;;;15.90;10.85;;;6.50;77.60;;;;;;5063011;28;20254;-70
2022/01/24 11:56:17;;;;;;;18.08;11.88;;;6.60;77.60;;;;;;5063306;28;20206;-69
2022/01/24 11:58:45;;;;;;;13.38;10.60;;;6.60;77.60;;;;;;5068573;28;20211;-69
2022/01/24 12:01:19;;;;;;;7.50;5.88;;;6.60;77.50;;;;;;5066541;28;20249;-67
2022/01/24 12:03:52;;;;;;;9.45;6.15;;;6.60;77.50;;;;;;5067398;28;20293;-69
2022/01/24 12:06:20;;;;;;;16.27;9.98;;;6.60;77.50;;;;;;5066809;28;20208;-69
2022/01/24 12:09:09;;;;;;;20.75;13.55;;;6.60;77.50;;;;;;5064780;28;20213;-69
2022/01/24 12:11:39;;;;;;;18.55;12.30;;;6.60;77.40;;;;;;5062695;28;20230;-69
2022/01/24 12:14:38;;;;;;;19.98;12.63;;;6.60;77.30;;;;;;5068851;28;20267;-69
2022/01/24 12:17:10;;;;;;;23.55;14.57;;;6.60;77.50;;;;;;5036158;28;20740;-68
2022/01/24 12:19:38;;;;;;;27.45;17.40;;;6.50;77.50;;;;;;5064502;28;20701;-68
2022/01/24 12:22:33;;;;;;;26.65;15.45;;;6.50;77.60;;;;;;5067725;28;20872;-71
2022/01/24 12:25:01;;;;;;;21.15;12.23;;;6.50;77.60;;;;;;5066992;28;20260;-70
2022/01/24 12:27:31;;;;;;;24.10;14.32;;;6.50;77.60;;;;;;5068228;28;20213;-68
2022/01/24 12:29:59;;;;;;;15.18;9.63;;;6.50;77.60;;;;;;5056635;28;20217;-69
2022/01/24 12:32:27;;;;;;;11.27;9.20;;;6.50;77.70;;;;;;5072289;28;20231;-70
2022/01/24 12:34:55;;;;;;;13.50;9.80;;;6.50;77.80;;;;;;5064832;28;20274;-68
2022/01/24 12:37:25;;;;;;;19.55;11.30;;;6.60;77.70;;;;;;5069521;28;20213;-70
2022/01/24 12:39:58;;;;;;;13.00;10.60;;;6.60;77.60;;;;;;5064111;28;20192;-70
2022/01/24 12:42:47;;;;;;;13.32;10.30;;;6.60;77.70;;;;;;5065403;28;20205;-70
2022/01/24 12:48:26;;;;;;;26.20;17.23;;;6.50;77.70;;;;;;5069294;28;20202;-69
2022/01/24 12:50:54;;;;;;;18.95;13.77;;;6.50;77.70;;;;;;5064897;28;20307;-69
2022/01/24 12:53:23;;;;;;;21.02;16.17;;;6.50;77.80;;;;;;5061183;28;20266;-70
2022/01/24 12:55:58;;;;;;;18.90;14.52;;;6.50;77.90;;;;;;5061283;28;20294;-69
2022/01/24 12:58:34;;;;;;;20.40;13.00;;;6.50;77.90;;;;;;5061974;28;20208;-69
2022/01/24 13:01:17;;;;;;;18.38;12.52;;;6.60;77.90;;;;;;5063468;28;20236;-69
2022/01/24 13:03:51;;;;;;;15.52;11.40;;;6.60;78.00;;;;;;5048133;28;20351;-69
2022/01/24 13:06:20;;;;;;;14.90;11.70;;;6.60;78.10;;;;;;5065989;28;20590;-69
2022/01/24 13:08:56;;;;;;;16.00;9.05;;;6.70;78.10;;;;;;5063756;28;20201;-69
2022/01/24 13:11:25;;;;;;;14.80;8.55;;;6.70;77.80;;;;;;5065859;28;20224;-69
2022/01/24 13:14:03;;;;;;;21.08;13.20;;;6.70;77.70;;;;;;5057460;28;20934;-69
2022/01/24 13:22:20;;;;;;;10.75;8.15;;;6.70;77.60;;;;;;5067853;28;20207;-70
2022/01/24 13:25:13;;;;;;;10.00;7.95;;;6.70;77.60;;;;;;5064096;28;20240;-69
2022/01/24 13:27:44;;;;;;;12.25;9.45;;;6.60;77.60;;;;;;5069200;28;20197;-69
2022/01/24 13:30:15;;;;;;;11.88;8.73;;;6.60;77.60;;;;;;5067561;28;20221;-69
2022/01/24 13:32:48;;;;;;;14.18;10.02;;;6.60;77.50;;;;;;5062588;28;20285;-69
2022/01/24 13:35:20;;;;;;;18.48;12.50;;;6.60;77.50;;;;;;5061043;28;21007;-70
2022/01/24 13:37:48;;;;;;;21.25;15.68;;;6.60;77.50;;;;;;5070705;28;20206;-68
2022/01/24 13:40:31;;;;;;;21.08;15.20;;;6.60;77.50;;;;;;5065657;28;20204;-68
2022/01/24 13:42:59;;;;;;;24.77;15.20;;;6.60;77.60;;;;;;5069849;28;20226;-68
2022/01/24 13:45:27;;;;;;;18.33;14.43;;;6.60;77.70;;;;;;5070740;28;20745;-68
2022/01/24 13:47:58;;;;;;;42.78;22.80;;;6.50;77.70;;;;;;5071259;28;20814;-69
2022/01/24 13:50:27;;;;;;;21.40;13.90;;;6.60;77.70;;;;;;5066283;28;20213;-70
2022/01/24 13:52:55;;;;;;;47.13;22.85;;;6.60;77.60;;;;;;5062221;28;20918;-70
2022/01/24 13:55:24;;;;;;;10.95;8.98;;;6.60;77.80;;;;;;5069927;28;20648;-69
2022/01/24 13:57:55;;;;;;;14.63;8.95;;;6.60;77.70;;;;;;5051728;28;20846;-69
2022/01/24 14:00:26;;;;;;;10.65;9.40;;;6.50;77.70;;;;;;5068896;28;20212;-69
2022/01/24 14:03:10;;;;;;;11.48;9.43;;;6.60;77.80;;;;;;5065409;28;21123;-69
2022/01/24 14:06:12;;;;;;;10.15;8.10;;;6.60;78.00;;;;;;5068404;28;20236;-70
2022/01/24 14:08:44;;;;;;;11.48;9.25;;;6.60;77.60;;;;;;5067611;28;20255;-68
2022/01/24 14:11:14;;;;;;;26.20;15.15;;;6.60;77.60;;;;;;5070943;28;21014;-69
2022/01/24 14:13:53;;;;;;;38.90;18.27;;;6.60;77.60;;;;;;5066336;28;20238;-69
2022/01/24 14:16:49;;;;;;;20.83;12.63;;;6.60;77.50;;;;;;5069741;28;20241;-69
2022/01/24 14:19:29;;;;;;;27.30;16.80;;;6.60;77.60;;;;;;5065085;28;20283;-68
2022/01/24 14:22:06;;;;;;;25.48;19.33;;;6.60;77.60;;;;;;5064376;28;20662;-67
2022/01/24 14:24:46;;;;;;;15.43;11.30;;;6.60;77.50;;;;;;5064910;28;20232;-70
2022/01/24 14:27:15;;;;;;;15.90;11.07;;;6.60;77.50;;;;;;5065424;28;20214;-69
2022/01/24 14:29:43;;;;;;;17.77;12.20;;;6.60;77.50;;;;;;5046389;28;20279;-69
2022/01/24 14:32:13;;;;;;;24.65;16.08;;;6.60;77.60;;;;;;5067588;28;20235;-69
2022/01/24 14:34:42;;;;;;;23.25;15.13;;;6.60;77.60;;;;;;5063559;28;20226;-70